sensor_id;sensor_type;location;lat;lon;timestamp;P1;durP1;ratioP1;P2;durP2;ratioP2
31730;SDS011;18310;55.586;12.286;2023-08-08T00:02:16;10.02;;;1.30;;
31730;SDS011;18310;55.586;12.286;2023-08-08T00:05:19;4.40;;;1.20;;
31730;SDS011;18310;55.586;12.286;2023-08-08T00:08:24;9.80;;;1.60;;
31730;SDS011;18310;55.586;12.286;2023-08-08T00:11:27;11.82;;;2.05;;
31730;SDS011;18310;55.586;12.286;2023-08-08T00:14:30;7.20;;;1.38;;
31730;SDS011;18310;55.586;12.286;2023-08-08T00:17:33;5.22;;;1.40;;
31730;SDS011;18310;55.586;12.286;2023-08-08T00:20:36;9.37;;;1.30;;
31730;SDS011;18310;55.586;12.286;2023-08-08T00:23:40;6.63;;;1.40;;
31730;SDS011;18310;55.586;12.286;2023-08-08T00:26:44;6.07;;;1.33;;
31730;SDS011;18310;55.586;12.286;2023-08-08T00:29:46;5.97;;;1.15;;
31730;SDS011;18310;55.586;12.286;2023-08-08T00:32:49;7.30;;;1.73;;
31730;SDS011;18310;55.586;12.286;2023-08-08T00:35:53;7.32;;;1.42;;
31730;SDS011;18310;55.586;12.286;2023-08-08T00:38:57;7.47;;;1.42;;
31730;SDS011;18310;55.586;12.286;2023-08-08T00:42:00;15.00;;;2.03;;
31730;SDS011;18310;55.586;12.286;2023-08-08T00:45:03;12.43;;;2.28;;
31730;SDS011;18310;55.586;12.286;2023-08-08T00:48:06;9.07;;;1.65;;
31730;SDS011;18310;55.586;12.286;2023-08-08T00:51:10;12.43;;;1.90;;
31730;SDS011;18310;55.586;12.286;2023-08-08T00:54:14;8.73;;;1.58;;
31730;SDS011;18310;55.586;12.286;2023-08-08T00:57:18;6.97;;;1.27;;
31730;SDS011;18310;55.586;12.286;2023-08-08T01:00:21;12.77;;;1.90;;
31730;SDS011;18310;55.586;12.286;2023-08-08T01:03:24;9.13;;;1.60;;
31730;SDS011;18310;55.586;12.286;2023-08-08T01:06:31;11.30;;;1.73;;
31730;SDS011;18310;55.586;12.286;2023-08-08T01:09:44;13.15;;;2.15;;
31730;SDS011;18310;55.586;12.286;2023-08-08T01:12:51;9.23;;;1.98;;
31730;SDS011;18310;55.586;12.286;2023-08-08T01:15:58;5.45;;;1.33;;
31730;SDS011;18310;55.586;12.286;2023-08-08T01:19:02;15.02;;;2.13;;
31730;SDS011;18310;55.586;12.286;2023-08-08T01:22:22;9.57;;;2.05;;
31730;SDS011;18310;55.586;12.286;2023-08-08T01:25:31;9.48;;;2.17;;
31730;SDS011;18310;55.586;12.286;2023-08-08T01:28:35;11.85;;;1.65;;
31730;SDS011;18310;55.586;12.286;2023-08-08T01:31:38;9.55;;;2.17;;
31730;SDS011;18310;55.586;12.286;2023-08-08T01:34:41;12.90;;;2.33;;
31730;SDS011;18310;55.586;12.286;2023-08-08T01:37:48;7.30;;;2.13;;
31730;SDS011;18310;55.586;12.286;2023-08-08T01:40:55;7.40;;;1.65;;
31730;SDS011;18310;55.586;12.286;2023-08-08T01:44:00;10.05;;;1.95;;
31730;SDS011;18310;55.586;12.286;2023-08-08T01:47:05;11.48;;;2.03;;
31730;SDS011;18310;55.586;12.286;2023-08-08T01:53:12;9.70;;;2.00;;
31730;SDS011;18310;55.586;12.286;2023-08-08T01:56:17;13.13;;;2.72;;
31730;SDS011;18310;55.586;12.286;2023-08-08T01:59:20;8.82;;;1.67;;
31730;SDS011;18310;55.586;12.286;2023-08-08T02:02:42;12.95;;;2.58;;
31730;SDS011;18310;55.586;12.286;2023-08-08T02:05:46;12.63;;;2.17;;
31730;SDS011;18310;55.586;12.286;2023-08-08T02:08:49;11.33;;;2.90;;
31730;SDS011;18310;55.586;12.286;2023-08-08T02:11:52;15.38;;;2.65;;
31730;SDS011;18310;55.586;12.286;2023-08-08T02:14:55;14.98;;;3.35;;
31730;SDS011;18310;55.586;12.286;2023-08-08T02:18:00;15.43;;;2.97;;
31730;SDS011;18310;55.586;12.286;2023-08-08T02:21:05;19.73;;;2.80;;
31730;SDS011;18310;55.586;12.286;2023-08-08T02:24:08;12.05;;;2.30;;
31730;SDS011;18310;55.586;12.286;2023-08-08T02:27:12;14.65;;;2.65;;
31730;SDS011;18310;55.586;12.286;2023-08-08T02:33:20;12.45;;;2.58;;
31730;SDS011;18310;55.586;12.286;2023-08-08T02:36:23;9.73;;;2.60;;
31730;SDS011;18310;55.586;12.286;2023-08-08T02:39:26;11.65;;;2.67;;
31730;SDS011;18310;55.586;12.286;2023-08-08T02:42:29;12.43;;;2.60;;
31730;SDS011;18310;55.586;12.286;2023-08-08T02:45:32;20.50;;;2.85;;
31730;SDS011;18310;55.586;12.286;2023-08-08T02:48:37;12.52;;;2.75;;
31730;SDS011;18310;55.586;12.286;2023-08-08T02:51:40;14.30;;;2.00;;
31730;SDS011;18310;55.586;12.286;2023-08-08T02:54:43;20.15;;;3.30;;
31730;SDS011;18310;55.586;12.286;2023-08-08T02:57:46;12.30;;;2.42;;
31730;SDS011;18310;55.586;12.286;2023-08-08T03:00:49;15.75;;;2.67;;
31730;SDS011;18310;55.586;12.286;2023-08-08T03:03:55;12.80;;;2.22;;
31730;SDS011;18310;55.586;12.286;2023-08-08T03:06:58;11.75;;;2.80;;
31730;SDS011;18310;55.586;12.286;2023-08-08T03:10:04;14.40;;;2.70;;
31730;SDS011;18310;55.586;12.286;2023-08-08T03:13:08;13.35;;;3.33;;
31730;SDS011;18310;55.586;12.286;2023-08-08T03:16:11;9.63;;;2.17;;
31730;SDS011;18310;55.586;12.286;2023-08-08T03:19:15;8.82;;;1.73;;
31730;SDS011;18310;55.586;12.286;2023-08-08T03:22:19;9.75;;;2.70;;
31730;SDS011;18310;55.586;12.286;2023-08-08T03:25:22;12.00;;;2.00;;
31730;SDS011;18310;55.586;12.286;2023-08-08T03:28:25;9.50;;;2.40;;
31730;SDS011;18310;55.586;12.286;2023-08-08T03:31:28;9.18;;;2.35;;
31730;SDS011;18310;55.586;12.286;2023-08-08T03:34:33;16.90;;;3.00;;
31730;SDS011;18310;55.586;12.286;2023-08-08T03:40:40;14.48;;;2.72;;
31730;SDS011;18310;55.586;12.286;2023-08-08T03:43:46;10.77;;;1.67;;
31730;SDS011;18310;55.586;12.286;2023-08-08T03:46:49;14.57;;;2.60;;
31730;SDS011;18310;55.586;12.286;2023-08-08T03:50:01;11.55;;;2.03;;
31730;SDS011;18310;55.586;12.286;2023-08-08T03:53:04;15.35;;;2.75;;
31730;SDS011;18310;55.586;12.286;2023-08-08T03:56:07;9.38;;;1.80;;
31730;SDS011;18310;55.586;12.286;2023-08-08T03:59:10;12.47;;;2.63;;
31730;SDS011;18310;55.586;12.286;2023-08-08T04:02:13;15.95;;;2.17;;
31730;SDS011;18310;55.586;12.286;2023-08-08T04:05:18;7.55;;;2.30;;
31730;SDS011;18310;55.586;12.286;2023-08-08T04:08:21;8.43;;;2.70;;
31730;SDS011;18310;55.586;12.286;2023-08-08T04:11:24;14.52;;;2.45;;
31730;SDS011;18310;55.586;12.286;2023-08-08T04:14:27;8.48;;;1.55;;
31730;SDS011;18310;55.586;12.286;2023-08-08T04:17:30;11.15;;;2.28;;
31730;SDS011;18310;55.586;12.286;2023-08-08T04:20:35;7.83;;;1.60;;
31730;SDS011;18310;55.586;12.286;2023-08-08T04:26:40;13.38;;;2.03;;
31730;SDS011;18310;55.586;12.286;2023-08-08T04:29:43;7.40;;;1.80;;
31730;SDS011;18310;55.586;12.286;2023-08-08T04:32:46;15.90;;;1.98;;
31730;SDS011;18310;55.586;12.286;2023-08-08T04:35:53;14.05;;;2.92;;
31730;SDS011;18310;55.586;12.286;2023-08-08T04:38:56;10.85;;;2.40;;
31730;SDS011;18310;55.586;12.286;2023-08-08T04:42:00;10.23;;;2.40;;
31730;SDS011;18310;55.586;12.286;2023-08-08T04:45:27;7.93;;;2.13;;
31730;SDS011;18310;55.586;12.286;2023-08-08T04:48:30;11.93;;;1.95;;
31730;SDS011;18310;55.586;12.286;2023-08-08T04:51:34;12.90;;;2.37;;
31730;SDS011;18310;55.586;12.286;2023-08-08T04:54:37;11.98;;;2.25;;
31730;SDS011;18310;55.586;12.286;2023-08-08T04:57:40;9.90;;;2.13;;
31730;SDS011;18310;55.586;12.286;2023-08-08T05:00:44;11.43;;;1.73;;
31730;SDS011;18310;55.586;12.286;2023-08-08T05:03:48;14.27;;;2.42;;
31730;SDS011;18310;55.586;12.286;2023-08-08T05:06:54;14.02;;;2.53;;
31730;SDS011;18310;55.586;12.286;2023-08-08T05:09:57;12.52;;;1.90;;
31730;SDS011;18310;55.586;12.286;2023-08-08T05:13:00;11.00;;;2.30;;
31730;SDS011;18310;55.586;12.286;2023-08-08T05:16:04;8.88;;;2.10;;
31730;SDS011;18310;55.586;12.286;2023-08-08T05:19:08;8.90;;;2.15;;
31730;SDS011;18310;55.586;12.286;2023-08-08T05:22:11;12.13;;;2.08;;
31730;SDS011;18310;55.586;12.286;2023-08-08T05:25:14;11.88;;;2.15;;
31730;SDS011;18310;55.586;12.286;2023-08-08T05:28:17;8.60;;;1.90;;
31730;SDS011;18310;55.586;12.286;2023-08-08T05:31:22;9.93;;;1.92;;
31730;SDS011;18310;55.586;12.286;2023-08-08T05:34:25;12.43;;;1.77;;
31730;SDS011;18310;55.586;12.286;2023-08-08T05:37:28;10.68;;;2.20;;
31730;SDS011;18310;55.586;12.286;2023-08-08T05:40:33;12.00;;;1.83;;
31730;SDS011;18310;55.586;12.286;2023-08-08T05:43:37;7.45;;;2.10;;
31730;SDS011;18310;55.586;12.286;2023-08-08T05:46:41;7.82;;;2.10;;
31730;SDS011;18310;55.586;12.286;2023-08-08T05:49:44;8.15;;;1.83;;
31730;SDS011;18310;55.586;12.286;2023-08-08T05:52:47;12.23;;;2.00;;
31730;SDS011;18310;55.586;12.286;2023-08-08T05:58:16;6.93;;;1.75;;
31730;SDS011;18310;55.586;12.286;2023-08-08T06:01:19;9.75;;;1.98;;
31730;SDS011;18310;55.586;12.286;2023-08-08T06:04:22;8.32;;;1.88;;
31730;SDS011;18310;55.586;12.286;2023-08-08T06:07:25;8.30;;;2.13;;
31730;SDS011;18310;55.586;12.286;2023-08-08T06:10:28;9.63;;;1.70;;
31730;SDS011;18310;55.586;12.286;2023-08-08T06:13:33;9.82;;;2.25;;
31730;SDS011;18310;55.586;12.286;2023-08-08T06:16:36;10.15;;;1.83;;
31730;SDS011;18310;55.586;12.286;2023-08-08T06:19:39;15.23;;;2.13;;
31730;SDS011;18310;55.586;12.286;2023-08-08T06:22:42;11.90;;;2.00;;
31730;SDS011;18310;55.586;12.286;2023-08-08T06:25:45;11.40;;;1.55;;
31730;SDS011;18310;55.586;12.286;2023-08-08T06:28:50;10.20;;;1.83;;
31730;SDS011;18310;55.586;12.286;2023-08-08T06:31:54;9.77;;;1.90;;
31730;SDS011;18310;55.586;12.286;2023-08-08T06:34:57;17.33;;;2.55;;
31730;SDS011;18310;55.586;12.286;2023-08-08T06:38:00;5.50;;;1.50;;
31730;SDS011;18310;55.586;12.286;2023-08-08T06:41:03;10.38;;;2.00;;
31730;SDS011;18310;55.586;12.286;2023-08-08T06:44:07;14.40;;;2.25;;
31730;SDS011;18310;55.586;12.286;2023-08-08T06:47:11;10.80;;;1.90;;
31730;SDS011;18310;55.586;12.286;2023-08-08T06:50:14;9.77;;;1.60;;
31730;SDS011;18310;55.586;12.286;2023-08-08T06:53:19;10.57;;;2.17;;
31730;SDS011;18310;55.586;12.286;2023-08-08T06:56:21;8.85;;;2.33;;
31730;SDS011;18310;55.586;12.286;2023-08-08T06:59:26;7.50;;;2.15;;
31730;SDS011;18310;55.586;12.286;2023-08-08T07:02:29;11.77;;;2.30;;
31730;SDS011;18310;55.586;12.286;2023-08-08T07:05:32;8.05;;;1.60;;
31730;SDS011;18310;55.586;12.286;2023-08-08T07:08:35;7.10;;;1.77;;
31730;SDS011;18310;55.586;12.286;2023-08-08T07:11:41;6.97;;;1.73;;
31730;SDS011;18310;55.586;12.286;2023-08-08T07:14:45;8.55;;;2.03;;
31730;SDS011;18310;55.586;12.286;2023-08-08T07:17:48;9.32;;;1.67;;
31730;SDS011;18310;55.586;12.286;2023-08-08T07:20:52;9.67;;;1.87;;
31730;SDS011;18310;55.586;12.286;2023-08-08T07:23:55;12.10;;;1.90;;
31730;SDS011;18310;55.586;12.286;2023-08-08T07:26:59;14.38;;;2.05;;
31730;SDS011;18310;55.586;12.286;2023-08-08T07:30:03;4.53;;;1.42;;
31730;SDS011;18310;55.586;12.286;2023-08-08T07:33:08;7.78;;;1.75;;
31730;SDS011;18310;55.586;12.286;2023-08-08T07:36:11;5.77;;;1.77;;
31730;SDS011;18310;55.586;12.286;2023-08-08T07:39:15;12.53;;;1.90;;
31730;SDS011;18310;55.586;12.286;2023-08-08T07:42:18;9.20;;;1.80;;
31730;SDS011;18310;55.586;12.286;2023-08-08T07:45:22;7.23;;;1.27;;
31730;SDS011;18310;55.586;12.286;2023-08-08T07:48:26;9.10;;;2.13;;
31730;SDS011;18310;55.586;12.286;2023-08-08T07:51:29;11.10;;;2.00;;
31730;SDS011;18310;55.586;12.286;2023-08-08T07:54:33;10.38;;;1.85;;
31730;SDS011;18310;55.586;12.286;2023-08-08T07:57:36;9.75;;;2.08;;
31730;SDS011;18310;55.586;12.286;2023-08-08T08:00:41;7.93;;;1.73;;
31730;SDS011;18310;55.586;12.286;2023-08-08T08:03:47;9.73;;;2.00;;
31730;SDS011;18310;55.586;12.286;2023-08-08T08:06:50;11.70;;;1.83;;
31730;SDS011;18310;55.586;12.286;2023-08-08T08:09:53;5.47;;;1.50;;
31730;SDS011;18310;55.586;12.286;2023-08-08T08:12:56;8.43;;;1.77;;
31730;SDS011;18310;55.586;12.286;2023-08-08T08:16:02;8.77;;;1.98;;
31730;SDS011;18310;55.586;12.286;2023-08-08T08:19:05;4.75;;;1.33;;
31730;SDS011;18310;55.586;12.286;2023-08-08T08:22:08;8.83;;;1.83;;
31730;SDS011;18310;55.586;12.286;2023-08-08T08:25:12;13.90;;;3.40;;
31730;SDS011;18310;55.586;12.286;2023-08-08T08:28:15;8.27;;;1.83;;
31730;SDS011;18310;55.586;12.286;2023-08-08T08:31:20;6.50;;;1.70;;
31730;SDS011;18310;55.586;12.286;2023-08-08T08:34:23;8.48;;;1.48;;
31730;SDS011;18310;55.586;12.286;2023-08-08T08:40:31;6.18;;;1.70;;
31730;SDS011;18310;55.586;12.286;2023-08-08T08:43:39;6.20;;;1.63;;
31730;SDS011;18310;55.586;12.286;2023-08-08T08:46:43;18.47;;;2.17;;
31730;SDS011;18310;55.586;12.286;2023-08-08T08:49:50;6.90;;;1.63;;
31730;SDS011;18310;55.586;12.286;2023-08-08T08:53:16;9.80;;;1.60;;
31730;SDS011;18310;55.586;12.286;2023-08-08T08:56:20;7.45;;;1.48;;
31730;SDS011;18310;55.586;12.286;2023-08-08T08:59:24;9.23;;;1.80;;
31730;SDS011;18310;55.586;12.286;2023-08-08T09:02:28;6.15;;;1.60;;
31730;SDS011;18310;55.586;12.286;2023-08-08T09:05:31;5.95;;;1.73;;
31730;SDS011;18310;55.586;12.286;2023-08-08T09:08:38;7.13;;;1.80;;
31730;SDS011;18310;55.586;12.286;2023-08-08T09:11:42;9.55;;;1.67;;
31730;SDS011;18310;55.586;12.286;2023-08-08T09:14:45;15.75;;;1.98;;
31730;SDS011;18310;55.586;12.286;2023-08-08T09:17:50;12.63;;;2.10;;
31730;SDS011;18310;55.586;12.286;2023-08-08T09:20:55;4.18;;;1.45;;
31730;SDS011;18310;55.586;12.286;2023-08-08T09:23:59;4.90;;;1.17;;
31730;SDS011;18310;55.586;12.286;2023-08-08T09:27:02;12.57;;;1.67;;
31730;SDS011;18310;55.586;12.286;2023-08-08T09:30:07;5.70;;;1.02;;
31730;SDS011;18310;55.586;12.286;2023-08-08T09:33:13;7.55;;;1.33;;
31730;SDS011;18310;55.586;12.286;2023-08-08T09:36:17;8.60;;;1.48;;
31730;SDS011;18310;55.586;12.286;2023-08-08T09:39:22;9.18;;;1.67;;
31730;SDS011;18310;55.586;12.286;2023-08-08T09:42:26;5.43;;;1.40;;
31730;SDS011;18310;55.586;12.286;2023-08-08T09:45:35;9.80;;;1.63;;
31730;SDS011;18310;55.586;12.286;2023-08-08T09:48:39;14.60;;;1.20;;
31730;SDS011;18310;55.586;12.286;2023-08-08T09:51:43;10.27;;;1.30;;
31730;SDS011;18310;55.586;12.286;2023-08-08T09:54:48;6.50;;;1.67;;
31730;SDS011;18310;55.586;12.286;2023-08-08T09:57:53;15.23;;;1.33;;
31730;SDS011;18310;55.586;12.286;2023-08-08T10:00:57;6.50;;;1.45;;
31730;SDS011;18310;55.586;12.286;2023-08-08T10:04:00;7.53;;;1.30;;
31730;SDS011;18310;55.586;12.286;2023-08-08T10:07:28;5.10;;;1.30;;
31730;SDS011;18310;55.586;12.286;2023-08-08T10:10:31;9.15;;;1.50;;
31730;SDS011;18310;55.586;12.286;2023-08-08T10:13:35;9.88;;;1.13;;
31730;SDS011;18310;55.586;12.286;2023-08-08T10:16:38;6.87;;;1.47;;
31730;SDS011;18310;55.586;12.286;2023-08-08T10:19:49;11.23;;;1.50;;
31730;SDS011;18310;55.586;12.286;2023-08-08T10:22:54;7.28;;;1.25;;
31730;SDS011;18310;55.586;12.286;2023-08-08T10:26:01;7.55;;;1.67;;
31730;SDS011;18310;55.586;12.286;2023-08-08T10:29:04;10.77;;;2.17;;
31730;SDS011;18310;55.586;12.286;2023-08-08T10:32:08;7.93;;;1.00;;
31730;SDS011;18310;55.586;12.286;2023-08-08T10:35:11;6.22;;;1.33;;
31730;SDS011;18310;55.586;12.286;2023-08-08T10:38:16;8.98;;;1.52;;
31730;SDS011;18310;55.586;12.286;2023-08-08T10:41:20;8.98;;;1.45;;
31730;SDS011;18310;55.586;12.286;2023-08-08T10:44:24;8.27;;;1.33;;
31730;SDS011;18310;55.586;12.286;2023-08-08T10:47:30;4.32;;;1.30;;
31730;SDS011;18310;55.586;12.286;2023-08-08T10:50:37;9.27;;;1.58;;
31730;SDS011;18310;55.586;12.286;2023-08-08T10:53:44;7.95;;;1.40;;
31730;SDS011;18310;55.586;12.286;2023-08-08T10:56:48;9.75;;;1.67;;
31730;SDS011;18310;55.586;12.286;2023-08-08T10:59:53;11.88;;;1.45;;
31730;SDS011;18310;55.586;12.286;2023-08-08T11:02:57;10.02;;;1.42;;
31730;SDS011;18310;55.586;12.286;2023-08-08T11:06:01;13.63;;;1.70;;
31730;SDS011;18310;55.586;12.286;2023-08-08T11:09:07;6.55;;;1.25;;
31730;SDS011;18310;55.586;12.286;2023-08-08T11:12:13;8.02;;;1.55;;
31730;SDS011;18310;55.586;12.286;2023-08-08T11:15:17;6.75;;;1.40;;
31730;SDS011;18310;55.586;12.286;2023-08-08T11:18:20;3.73;;;0.83;;
31730;SDS011;18310;55.586;12.286;2023-08-08T11:21:24;8.15;;;1.48;;
31730;SDS011;18310;55.586;12.286;2023-08-08T11:24:34;10.27;;;1.07;;
31730;SDS011;18310;55.586;12.286;2023-08-08T11:27:37;4.47;;;1.10;;
31730;SDS011;18310;55.586;12.286;2023-08-08T11:34:47;6.35;;;1.42;;
31730;SDS011;18310;55.586;12.286;2023-08-08T11:37:52;7.32;;;1.50;;
31730;SDS011;18310;55.586;12.286;2023-08-08T11:40:56;7.95;;;1.45;;
31730;SDS011;18310;55.586;12.286;2023-08-08T11:44:01;9.43;;;1.52;;
31730;SDS011;18310;55.586;12.286;2023-08-08T11:47:05;5.63;;;1.52;;
31730;SDS011;18310;55.586;12.286;2023-08-08T11:50:11;8.20;;;1.70;;
31730;SDS011;18310;55.586;12.286;2023-08-08T11:53:14;7.65;;;1.40;;
31730;SDS011;18310;55.586;12.286;2023-08-08T11:56:18;5.00;;;1.00;;
31730;SDS011;18310;55.586;12.286;2023-08-08T11:59:22;7.00;;;1.10;;
31730;SDS011;18310;55.586;12.286;2023-08-08T12:02:26;5.93;;;1.10;;
31730;SDS011;18310;55.586;12.286;2023-08-08T12:05:35;6.35;;;1.33;;
31730;SDS011;18310;55.586;12.286;2023-08-08T12:08:40;7.97;;;1.10;;
31730;SDS011;18310;55.586;12.286;2023-08-08T12:11:46;5.53;;;1.10;;
31730;SDS011;18310;55.586;12.286;2023-08-08T12:14:49;6.13;;;1.17;;
31730;SDS011;18310;55.586;12.286;2023-08-08T12:18:09;6.78;;;1.30;;
31730;SDS011;18310;55.586;12.286;2023-08-08T12:21:34;7.10;;;1.38;;
31730;SDS011;18310;55.586;12.286;2023-08-08T12:24:37;5.10;;;1.02;;
31730;SDS011;18310;55.586;12.286;2023-08-08T12:27:40;4.20;;;0.82;;
31730;SDS011;18310;55.586;12.286;2023-08-08T12:30:43;12.38;;;1.13;;
31730;SDS011;18310;55.586;12.286;2023-08-08T12:33:46;5.22;;;1.02;;
31730;SDS011;18310;55.586;12.286;2023-08-08T12:36:51;11.77;;;1.30;;
31730;SDS011;18310;55.586;12.286;2023-08-08T12:39:55;5.38;;;1.13;;
31730;SDS011;18310;55.586;12.286;2023-08-08T12:42:58;8.47;;;1.03;;
31730;SDS011;18310;55.586;12.286;2023-08-08T12:46:01;5.63;;;1.00;;
31730;SDS011;18310;55.586;12.286;2023-08-08T12:49:04;8.23;;;1.03;;
31730;SDS011;18310;55.586;12.286;2023-08-08T12:52:08;3.38;;;0.90;;
31730;SDS011;18310;55.586;12.286;2023-08-08T12:55:11;7.50;;;1.48;;
31730;SDS011;18310;55.586;12.286;2023-08-08T12:58:16;7.00;;;1.05;;
31730;SDS011;18310;55.586;12.286;2023-08-08T13:04:23;6.35;;;1.05;;
31730;SDS011;18310;55.586;12.286;2023-08-08T13:10:31;4.68;;;1.55;;
31730;SDS011;18310;55.586;12.286;2023-08-08T13:13:34;4.13;;;0.95;;
31730;SDS011;18310;55.586;12.286;2023-08-08T13:16:37;7.80;;;1.17;;
31730;SDS011;18310;55.586;12.286;2023-08-08T13:19:40;4.75;;;1.30;;
31730;SDS011;18310;55.586;12.286;2023-08-08T13:22:44;4.93;;;0.82;;
31730;SDS011;18310;55.586;12.286;2023-08-08T13:25:47;8.02;;;1.40;;
31730;SDS011;18310;55.586;12.286;2023-08-08T13:28:51;3.57;;;1.10;;
31730;SDS011;18310;55.586;12.286;2023-08-08T13:31:53;8.52;;;1.30;;
31730;SDS011;18310;55.586;12.286;2023-08-08T13:34:56;7.35;;;1.02;;
31730;SDS011;18310;55.586;12.286;2023-08-08T13:38:01;6.97;;;1.10;;
31730;SDS011;18310;55.586;12.286;2023-08-08T13:41:04;3.95;;;0.80;;
31730;SDS011;18310;55.586;12.286;2023-08-08T13:44:07;11.70;;;1.48;;
31730;SDS011;18310;55.586;12.286;2023-08-08T13:47:10;11.57;;;1.53;;
31730;SDS011;18310;55.586;12.286;2023-08-08T13:50:13;7.32;;;1.55;;
31730;SDS011;18310;55.586;12.286;2023-08-08T13:53:18;8.37;;;1.40;;
31730;SDS011;18310;55.586;12.286;2023-08-08T13:56:21;3.88;;;1.13;;
31730;SDS011;18310;55.586;12.286;2023-08-08T13:59:24;4.33;;;1.10;;
31730;SDS011;18310;55.586;12.286;2023-08-08T14:02:28;8.55;;;1.27;;
31730;SDS011;18310;55.586;12.286;2023-08-08T14:05:31;5.87;;;0.80;;
31730;SDS011;18310;55.586;12.286;2023-08-08T14:08:36;7.63;;;1.20;;
31730;SDS011;18310;55.586;12.286;2023-08-08T14:11:39;4.40;;;1.02;;
31730;SDS011;18310;55.586;12.286;2023-08-08T14:14:42;4.70;;;1.08;;
31730;SDS011;18310;55.586;12.286;2023-08-08T14:17:44;3.25;;;0.98;;
31730;SDS011;18310;55.586;12.286;2023-08-08T14:20:48;5.50;;;1.15;;
31730;SDS011;18310;55.586;12.286;2023-08-08T14:23:52;10.47;;;1.30;;
31730;SDS011;18310;55.586;12.286;2023-08-08T14:26:55;5.93;;;1.60;;
31730;SDS011;18310;55.586;12.286;2023-08-08T14:29:58;4.57;;;0.88;;
31730;SDS011;18310;55.586;12.286;2023-08-08T14:33:02;4.90;;;1.25;;
31730;SDS011;18310;55.586;12.286;2023-08-08T14:36:06;6.18;;;1.33;;
31730;SDS011;18310;55.586;12.286;2023-08-08T14:39:10;3.88;;;1.30;;
31730;SDS011;18310;55.586;12.286;2023-08-08T14:42:14;4.35;;;1.30;;
31730;SDS011;18310;55.586;12.286;2023-08-08T14:45:17;8.52;;;1.50;;
31730;SDS011;18310;55.586;12.286;2023-08-08T14:48:20;5.33;;;1.20;;
31730;SDS011;18310;55.586;12.286;2023-08-08T14:51:23;3.75;;;1.10;;
31730;SDS011;18310;55.586;12.286;2023-08-08T14:54:29;6.55;;;1.45;;
31730;SDS011;18310;55.586;12.286;2023-08-08T14:57:32;4.80;;;1.20;;
31730;SDS011;18310;55.586;12.286;2023-08-08T15:00:35;6.05;;;1.17;;
31730;SDS011;18310;55.586;12.286;2023-08-08T15:03:38;6.20;;;1.60;;
31730;SDS011;18310;55.586;12.286;2023-08-08T15:06:43;5.40;;;1.30;;
31730;SDS011;18310;55.586;12.286;2023-08-08T15:09:47;3.58;;;0.95;;
31730;SDS011;18310;55.586;12.286;2023-08-08T15:12:51;6.15;;;1.23;;
31730;SDS011;18310;55.586;12.286;2023-08-08T15:15:54;7.10;;;1.27;;
31730;SDS011;18310;55.586;12.286;2023-08-08T15:18:57;8.03;;;1.60;;
31730;SDS011;18310;55.586;12.286;2023-08-08T15:22:00;7.50;;;1.35;;
31730;SDS011;18310;55.586;12.286;2023-08-08T15:25:05;8.27;;;1.87;;
31730;SDS011;18310;55.586;12.286;2023-08-08T15:28:09;4.28;;;1.08;;
31730;SDS011;18310;55.586;12.286;2023-08-08T15:31:12;7.72;;;1.20;;
31730;SDS011;18310;55.586;12.286;2023-08-08T15:34:15;10.63;;;2.20;;
31730;SDS011;18310;55.586;12.286;2023-08-08T15:37:18;7.72;;;1.45;;
31730;SDS011;18310;55.586;12.286;2023-08-08T15:40:22;5.38;;;1.35;;
31730;SDS011;18310;55.586;12.286;2023-08-08T15:43:25;10.32;;;1.00;;
31730;SDS011;18310;55.586;12.286;2023-08-08T15:46:29;7.73;;;1.50;;
31730;SDS011;18310;55.586;12.286;2023-08-08T15:49:32;4.50;;;0.93;;
31730;SDS011;18310;55.586;12.286;2023-08-08T15:52:35;7.38;;;1.45;;
31730;SDS011;18310;55.586;12.286;2023-08-08T15:55:40;4.85;;;1.13;;
31730;SDS011;18310;55.586;12.286;2023-08-08T15:58:46;5.63;;;1.42;;
31730;SDS011;18310;55.586;12.286;2023-08-08T16:01:49;7.75;;;0.85;;
31730;SDS011;18310;55.586;12.286;2023-08-08T16:04:52;5.07;;;1.33;;
31730;SDS011;18310;55.586;12.286;2023-08-08T16:07:55;6.50;;;1.05;;
31730;SDS011;18310;55.586;12.286;2023-08-08T16:10:59;5.05;;;1.02;;
31730;SDS011;18310;55.586;12.286;2023-08-08T16:14:03;5.82;;;1.20;;
31730;SDS011;18310;55.586;12.286;2023-08-08T16:17:06;5.73;;;1.70;;
31730;SDS011;18310;55.586;12.286;2023-08-08T16:20:10;6.70;;;1.13;;
31730;SDS011;18310;55.586;12.286;2023-08-08T16:23:13;6.78;;;1.63;;
31730;SDS011;18310;55.586;12.286;2023-08-08T16:26:38;5.80;;;1.75;;
31730;SDS011;18310;55.586;12.286;2023-08-08T16:29:41;6.85;;;1.30;;
31730;SDS011;18310;55.586;12.286;2023-08-08T16:33:48;6.57;;;1.85;;
31730;SDS011;18310;55.586;12.286;2023-08-08T16:36:51;6.70;;;1.58;;
31730;SDS011;18310;55.586;12.286;2023-08-08T16:39:54;6.43;;;1.33;;
31730;SDS011;18310;55.586;12.286;2023-08-08T16:42:58;8.30;;;2.13;;
31730;SDS011;18310;55.586;12.286;2023-08-08T16:46:01;13.80;;;1.87;;
31730;SDS011;18310;55.586;12.286;2023-08-08T16:49:05;5.30;;;1.38;;
31730;SDS011;18310;55.586;12.286;2023-08-08T16:52:09;7.07;;;1.50;;
31730;SDS011;18310;55.586;12.286;2023-08-08T16:55:12;5.90;;;1.38;;
31730;SDS011;18310;55.586;12.286;2023-08-08T16:58:15;7.20;;;1.65;;
31730;SDS011;18310;55.586;12.286;2023-08-08T17:01:18;7.03;;;2.13;;
31730;SDS011;18310;55.586;12.286;2023-08-08T17:04:23;5.33;;;1.43;;
31730;SDS011;18310;55.586;12.286;2023-08-08T17:07:25;6.80;;;1.35;;
31730;SDS011;18310;55.586;12.286;2023-08-08T17:10:30;8.43;;;1.50;;
31730;SDS011;18310;55.586;12.286;2023-08-08T17:13:33;10.00;;;1.73;;
31730;SDS011;18310;55.586;12.286;2023-08-08T17:16:36;4.57;;;1.10;;
31730;SDS011;18310;55.586;12.286;2023-08-08T17:19:42;7.20;;;1.05;;
31730;SDS011;18310;55.586;12.286;2023-08-08T17:22:45;5.63;;;1.20;;
31730;SDS011;18310;55.586;12.286;2023-08-08T17:25:48;16.33;;;1.77;;
31730;SDS011;18310;55.586;12.286;2023-08-08T17:28:52;13.80;;;1.63;;
31730;SDS011;18310;55.586;12.286;2023-08-08T17:31:55;8.90;;;1.00;;
31730;SDS011;18310;55.586;12.286;2023-08-08T17:34:59;6.88;;;1.83;;
31730;SDS011;18310;55.586;12.286;2023-08-08T17:38:03;5.78;;;1.67;;
31730;SDS011;18310;55.586;12.286;2023-08-08T17:41:06;5.37;;;1.00;;
31730;SDS011;18310;55.586;12.286;2023-08-08T17:44:09;5.05;;;1.20;;
31730;SDS011;18310;55.586;12.286;2023-08-08T17:47:12;8.38;;;1.58;;
31730;SDS011;18310;55.586;12.286;2023-08-08T17:50:17;5.88;;;1.27;;
31730;SDS011;18310;55.586;12.286;2023-08-08T17:54:49;10.68;;;1.52;;
31730;SDS011;18310;55.586;12.286;2023-08-08T17:57:52;8.45;;;1.45;;
31730;SDS011;18310;55.586;12.286;2023-08-08T18:00:55;6.05;;;2.00;;
31730;SDS011;18310;55.586;12.286;2023-08-08T18:03:58;7.00;;;1.47;;
31730;SDS011;18310;55.586;12.286;2023-08-08T18:07:01;13.63;;;1.50;;
31730;SDS011;18310;55.586;12.286;2023-08-08T18:10:06;7.68;;;1.48;;
31730;SDS011;18310;55.586;12.286;2023-08-08T18:13:10;11.55;;;1.70;;
31730;SDS011;18310;55.586;12.286;2023-08-08T18:16:13;8.30;;;1.75;;
31730;SDS011;18310;55.586;12.286;2023-08-08T18:19:16;8.23;;;1.48;;
31730;SDS011;18310;55.586;12.286;2023-08-08T18:22:21;9.60;;;1.55;;
31730;SDS011;18310;55.586;12.286;2023-08-08T18:25:25;7.97;;;1.75;;
31730;SDS011;18310;55.586;12.286;2023-08-08T18:31:31;6.30;;;1.40;;
31730;SDS011;18310;55.586;12.286;2023-08-08T18:34:34;5.10;;;1.43;;
31730;SDS011;18310;55.586;12.286;2023-08-08T18:37:38;5.00;;;1.15;;
31730;SDS011;18310;55.586;12.286;2023-08-08T18:40:42;4.53;;;1.00;;
31730;SDS011;18310;55.586;12.286;2023-08-08T18:43:46;3.35;;;0.93;;